Time;durP1;ratioP1;P1;durP2;ratioP2;P2;SDS_P1;SDS_P2;PMS_P1;PMS_P2;Temp;Humidity;BMP_temperature;BMP_pressure;BME280_temperature;BME280_humidity;BME280_pressure;Samples;Min_cycle;Max_cycle;Signal;HPM_P1;HPM_P2
2023/01/09 00:02:07;;;;;;;4.30;4.10;;;9.80;64.60;;;;;;20461;6853;308471;-79
2023/01/09 00:04:33;;;;;;;4.15;3.95;;;10.00;63.10;;;;;;20475;6853;308066;-79
2023/01/09 00:06:58;;;;;;;3.27;3.07;;;10.30;61.90;;;;;;20689;6853;117177;-79
2023/01/09 00:09:24;;;;;;;2.90;2.80;;;10.30;61.80;;;;;;20689;6853;117734;-79
2023/01/09 00:11:49;;;;;;;2.47;2.37;;;10.00;62.20;;;;;;20695;6853;117171;-79
2023/01/09 00:14:15;;;;;;;2.50;2.40;;;9.90;63.90;;;;;;20670;6853;121010;-80
2023/01/09 00:16:41;;;;;;;2.40;2.30;;;9.90;64.00;;;;;;20477;6853;307717;-79
2023/01/09 00:19:06;;;;;;;2.50;2.40;;;9.80;63.90;;;;;;20471;6853;338535;-79
2023/01/09 00:21:32;;;;;;;1.50;1.40;;;10.20;61.90;;;;;;20692;6853;121050;-79
2023/01/09 00:23:58;;;;;;;1.40;1.30;;;10.20;61.50;;;;;;20667;6853;118676;-79
2023/01/09 00:26:23;;;;;;;1.58;1.58;;;10.00;62.00;;;;;;20473;6854;343207;-79
2023/01/09 00:28:49;;;;;;;1.50;1.40;;;10.10;61.90;;;;;;20685;6854;117756;-78
2023/01/09 00:31:14;;;;;;;1.23;1.13;;;10.10;61.80;;;;;;20475;6854;282393;-78
2023/01/09 00:33:40;;;;;;;1.17;1.17;;;10.20;61.60;;;;;;20690;6854;117732;-79
2023/01/09 00:36:06;;;;;;;1.23;1.23;;;10.20;61.60;;;;;;20461;6854;279018;-79
2023/01/09 00:38:31;;;;;;;1.10;1.10;;;10.30;61.30;;;;;;20482;6854;284495;-78
2023/01/09 00:40:58;;;;;;;1.30;1.30;;;10.50;60.40;;;;;;20690;6854;117452;-78
2023/01/09 00:43:25;;;;;;;1.30;1.30;;;10.40;60.50;;;;;;20482;6854;281259;-78
2023/01/09 00:45:50;;;;;;;1.10;1.10;;;10.50;60.40;;;;;;20679;6854;117389;-78
2023/01/09 00:48:23;;;;;;;1.48;1.20;;;10.10;61.00;;;;;;20669;6854;117978;-78
2023/01/09 00:50:42;;;;;;;1.40;1.40;;;10.10;61.00;;;;;;20448;6854;303130;-78
2023/01/09 00:53:08;;;;;;;1.27;1.27;;;10.20;61.00;;;;;;20478;6854;281179;-78
2023/01/09 00:55:33;;;;;;;1.20;1.20;;;10.50;60.30;;;;;;20469;6854;281074;-78
2023/01/09 00:58:01;;;;;;;1.10;1.10;;;10.70;59.60;;;;;;20652;6854;134221;-79
2023/01/09 01:00:26;;;;;;;1.10;1.10;;;10.60;59.70;;;;;;20473;6852;307235;-79
2023/01/09 01:02:51;;;;;;;1.17;1.17;;;10.60;59.60;;;;;;20480;6853;296542;-78
2023/01/09 01:08:10;;;;;;;0.70;0.70;;;10.60;59.10;;;;;;20472;6853;311856;-78
2023/01/09 01:10:37;;;;;;;0.87;0.87;;;10.60;59.00;;;;;;20671;6853;117547;-78
2023/01/09 01:13:03;;;;;;;0.93;0.77;;;10.50;59.20;;;;;;20699;6853;117511;-77
2023/01/09 01:15:30;;;;;;;0.75;0.75;;;10.20;59.80;;;;;;20484;6853;278493;-78
2023/01/09 01:17:55;;;;;;;0.80;0.80;;;10.30;60.10;;;;;;20474;6853;312048;-78
2023/01/09 01:20:21;;;;;;;0.60;0.60;;;10.50;59.30;;;;;;20650;6853;118390;-78
2023/01/09 01:22:46;;;;;;;0.73;0.73;;;10.50;59.30;;;;;;20683;6853;117939;-78
2023/01/09 01:25:12;;;;;;;0.90;0.70;;;10.20;59.90;;;;;;20480;6853;293055;-79
2023/01/09 01:27:37;;;;;;;0.70;0.70;;;10.30;60.10;;;;;;20469;6853;278548;-78
2023/01/09 01:30:03;;;;;;;0.67;0.60;;;10.50;59.50;;;;;;20462;6853;278853;-78
2023/01/09 01:32:29;;;;;;;0.73;0.60;;;10.70;59.00;;;;;;20476;6853;320274;-78
2023/01/09 01:34:55;;;;;;;1.23;0.60;;;10.70;58.80;;;;;;20699;6853;117635;-82
2023/01/09 01:37:21;;;;;;;0.77;0.60;;;10.70;58.70;;;;;;20691;6854;117148;-79
2023/01/09 01:39:46;;;;;;;0.47;0.47;;;10.40;59.50;;;;;;20479;6854;279127;-78
2023/01/09 01:42:12;;;;;;;0.70;0.50;;;10.40;59.90;;;;;;20670;6854;123125;-78
2023/01/09 01:45:14;;;;;;;0.70;0.70;;;10.30;59.90;;;;;;20476;6854;307071;-78
2023/01/09 01:47:45;;;;;;;0.67;0.67;;;10.40;59.70;;;;;;20471;6854;279165;-79
2023/01/09 01:50:11;;;;;;;0.40;0.40;;;10.70;59.60;;;;;;20459;6854;279413;-79
2023/01/09 01:52:36;;;;;;;0.50;0.50;;;10.80;59.10;;;;;;20419;6854;311924;-79
2023/01/09 01:55:02;;;;;;;0.27;0.27;;;11.00;58.70;;;;;;20689;6854;116451;-79
2023/01/09 01:57:28;;;;;;;0.43;0.43;;;10.80;58.90;;;;;;20469;6854;337690;-79
2023/01/09 01:59:53;;;;;;;0.53;0.53;;;10.70;59.10;;;;;;20677;6854;117345;-78
2023/01/09 02:02:19;;;;;;;0.60;0.60;;;10.60;59.40;;;;;;20457;6854;305869;-78
2023/01/09 02:04:44;;;;;;;0.45;0.45;;;10.60;59.80;;;;;;20679;6854;117305;-79
2023/01/09 02:07:10;;;;;;;0.50;0.50;;;10.50;59.90;;;;;;20485;6854;341086;-78
2023/01/09 02:09:35;;;;;;;0.50;0.50;;;10.50;59.90;;;;;;20485;6854;307661;-79
2023/01/09 02:12:01;;;;;;;0.50;0.50;;;10.70;59.50;;;;;;20452;6852;278091;-79
2023/01/09 02:14:26;;;;;;;0.50;0.50;;;10.80;59.00;;;;;;20490;6853;278568;-78
2023/01/09 02:17:06;;;;;;;0.60;0.57;;;11.00;58.60;;;;;;20469;6853;337194;-79
2023/01/09 02:19:53;;;;;;;0.50;0.50;;;11.10;58.30;;;;;;20691;6853;117257;-78
2023/01/09 02:22:39;;;;;;;0.30;0.30;;;10.80;58.60;;;;;;20665;6853;117446;-80
2023/01/09 02:25:45;;;;;;;0.50;0.50;;;10.30;59.40;;;;;;19424;7208;322197;-79
2023/01/09 02:28:30;;;;;;;0.60;0.60;;;10.30;60.10;;;;;;20262;6853;312939;-79
2023/01/09 02:31:22;;;;;;;0.70;0.70;;;10.60;59.60;;;;;;20691;6853;121124;-78
2023/01/09 02:34:18;;;;;;;0.60;0.60;;;10.40;59.70;;;;;;20479;6853;306746;-79
2023/01/09 02:37:24;;;;;;;0.60;0.60;;;10.40;59.90;;;;;;20486;6853;308022;-78
2023/01/09 02:40:06;;;;;;;0.60;0.60;;;10.60;59.60;;;;;;20483;6853;315624;-79
2023/01/09 02:42:32;;;;;;;0.40;0.40;;;10.50;59.20;;;;;;20680;6853;117277;-79
2023/01/09 02:44:58;;;;;;;0.50;0.50;;;10.50;59.20;;;;;;20477;6853;309332;-79
2023/01/09 02:47:23;;;;;;;0.50;0.50;;;10.50;59.60;;;;;;20697;6853;117452;-79
2023/01/09 02:49:52;;;;;;;0.40;0.40;;;10.30;60.00;;;;;;20432;6854;344452;-78
2023/01/09 02:52:44;;;;;;;0.30;0.30;;;10.40;60.10;;;;;;20653;6854;118379;-79
2023/01/09 02:55:10;;;;;;;0.50;0.50;;;10.20;60.20;;;;;;20474;6854;278305;-80
2023/01/09 02:57:39;;;;;;;0.30;0.30;;;10.30;60.20;;;;;;20449;6854;312097;-79
2023/01/09 03:00:15;;;;;;;0.30;0.30;;;10.50;59.80;;;;;;20671;6854;127078;-79
2023/01/09 03:02:41;;;;;;;0.70;0.23;;;10.30;59.80;;;;;;20485;6854;277935;-79
2023/01/09 03:05:10;;;;;;;0.45;0.40;;;10.30;60.00;;;;;;20468;6854;307221;-79
2023/01/09 03:07:35;;;;;;;0.60;0.40;;;10.50;59.80;;;;;;20674;6854;117993;-79
2023/01/09 03:10:11;;;;;;;0.67;0.40;;;10.30;59.80;;;;;;20662;6854;121878;-79
2023/01/09 03:12:37;;;;;;;0.55;0.50;;;10.10;60.40;;;;;;20462;6854;308077;-79
2023/01/09 03:15:02;;;;;;;0.30;0.30;;;10.10;61.20;;;;;;20484;6854;308045;-79
2023/01/09 03:17:28;;;;;;;1.07;0.50;;;10.20;60.80;;;;;;20680;6854;117569;-79
2023/01/09 03:19:54;;;;;;;0.50;0.50;;;10.10;60.70;;;;;;20443;6854;279061;-79
2023/01/09 03:22:20;;;;;;;0.40;0.40;;;10.10;61.30;;;;;;20667;6852;123059;-78
2023/01/09 03:24:46;;;;;;;0.50;0.50;;;10.10;61.30;;;;;;20694;6852;117313;-78
2023/01/09 03:27:11;;;;;;;0.90;0.50;;;9.80;62.80;;;;;;20473;6853;298396;-78
2023/01/09 03:29:38;;;;;;;0.40;0.40;;;9.90;63.30;;;;;;20697;6853;117178;-78
2023/01/09 03:32:03;;;;;;;1.30;0.50;;;9.90;63.30;;;;;;20464;6853;338508;-78
2023/01/09 03:34:29;;;;;;;0.80;0.80;;;10.00;62.60;;;;;;20482;6853;292350;-78
2023/01/09 03:36:55;;;;;;;0.70;0.70;;;10.10;61.80;;;;;;20697;6853;117092;-78
2023/01/09 03:39:21;;;;;;;0.40;0.40;;;10.10;61.80;;;;;;20695;6853;117323;-78
2023/01/09 03:41:47;;;;;;;0.50;0.50;;;9.60;64.00;;;;;;20692;6853;117417;-78
2023/01/09 03:44:14;;;;;;;0.33;0.33;;;9.40;64.50;;;;;;20681;6853;118569;-78
2023/01/09 03:46:39;;;;;;;0.50;0.50;;;9.40;64.50;;;;;;20697;6853;117189;-78
2023/01/09 03:49:05;;;;;;;0.30;0.20;;;9.20;64.90;;;;;;20500;6853;284987;-77
2023/01/09 03:51:30;;;;;;;0.32;0.20;;;9.40;64.70;;;;;;20710;6853;117648;-78
2023/01/09 03:53:56;;;;;;;0.30;0.30;;;9.40;64.20;;;;;;20460;6853;307660;-78
2023/01/09 03:56:21;;;;;;;0.82;0.30;;;9.60;63.90;;;;;;20683;6853;117315;-78
2023/01/09 03:58:49;;;;;;;0.37;0.30;;;9.60;63.70;;;;;;20474;6853;341267;-78
2023/01/09 04:01:13;;;;;;;1.10;0.35;;;9.70;63.30;;;;;;20480;6854;282565;-78
2023/01/09 04:03:38;;;;;;;0.33;0.20;;;9.90;62.40;;;;;;20697;6854;117299;-78
2023/01/09 04:06:04;;;;;;;0.20;0.20;;;9.80;62.20;;;;;;20677;6854;117313;-78
2023/01/09 04:08:29;;;;;;;1.40;0.23;;;9.60;62.80;;;;;;20481;6854;337638;-78
2023/01/09 04:10:55;;;;;;;0.80;0.20;;;9.60;62.80;;;;;;20484;6854;336988;-80
2023/01/09 04:13:22;;;;;;;0.52;0.10;;;9.70;61.80;;;;;;20695;6854;117233;-84
2023/01/09 04:15:48;;;;;;;0.10;0.10;;;9.70;61.80;;;;;;20689;6854;117651;-81
2023/01/09 04:18:13;;;;;;;0.10;0.10;;;9.50;62.30;;;;;;20462;6854;278443;-80
2023/01/09 04:20:40;;;;;;;0.88;0.20;;;9.40;62.40;;;;;;20688;6854;117425;-77
2023/01/09 04:23:05;;;;;;;0.50;0.30;;;9.40;62.40;;;;;;20676;6854;117649;-82
2023/01/09 04:25:31;;;;;;;0.33;0.30;;;9.20;62.90;;;;;;20484;6854;307591;-78
2023/01/09 04:27:56;;;;;;;0.20;0.20;;;9.30;62.80;;;;;;20466;6854;307605;-78
2023/01/09 04:30:22;;;;;;;0.13;0.13;;;9.60;62.00;;;;;;20686;6854;117840;-78
2023/01/09 04:32:48;;;;;;;2.70;0.47;;;9.60;61.80;;;;;;20694;6854;121011;-78
2023/01/09 04:35:13;;;;;;;0.10;0.10;;;9.40;62.40;;;;;;20477;6852;308339;-79
2023/01/09 04:37:39;;;;;;;0.37;0.37;;;9.50;62.30;;;;;;20698;6853;117569;-79
2023/01/09 04:40:07;;;;;;;0.67;0.20;;;9.50;62.20;;;;;;20461;6853;303387;-79
2023/01/09 04:42:30;;;;;;;0.53;0.30;;;9.50;61.70;;;;;;20681;6853;123820;-79
2023/01/09 04:44:56;;;;;;;0.30;0.30;;;9.40;61.60;;;;;;20470;6853;339590;-79
2023/01/09 04:47:22;;;;;;;0.20;0.20;;;9.50;61.40;;;;;;20693;6853;117040;-78
2023/01/09 04:49:47;;;;;;;0.10;0.10;;;9.40;61.30;;;;;;20684;6853;117153;-79
2023/01/09 04:52:12;;;;;;;1.20;1.10;;;9.10;61.70;;;;;;20459;6853;311660;-79
2023/01/09 04:54:38;;;;;;;0.17;0.10;;;9.10;61.00;;;;;;20479;6853;281190;-79
2023/01/09 04:57:03;;;;;;;0.35;0.10;;;9.30;59.70;;;;;;20485;6853;278052;-77
2023/01/09 04:59:29;;;;;;;0.10;0.10;;;9.50;58.80;;;;;;20482;6853;312097;-80
2023/01/09 05:01:57;;;;;;;0.53;0.20;;;9.70;58.20;;;;;;20486;6853;280040;-75
2023/01/09 05:04:20;;;;;;;0.50;0.10;;;9.80;57.00;;;;;;20461;6853;311595;-75
2023/01/09 05:06:46;;;;;;;1.70;1.60;;;9.80;56.00;;;;;;20695;6853;117188;-75
2023/01/09 05:09:11;;;;;;;0.17;0.17;;;9.50;56.50;;;;;;20484;6853;278914;-75
2023/01/09 05:11:37;;;;;;;0.20;0.20;;;9.40;56.50;;;;;;20488;6853;281659;-75
2023/01/09 05:14:02;;;;;;;0.30;0.20;;;9.50;56.50;;;;;;20467;6854;278386;-75
2023/01/09 05:16:30;;;;;;;0.10;0.10;;;9.60;55.80;;;;;;20482;6854;278091;-73
2023/01/09 05:18:56;;;;;;;0.10;0.10;;;9.60;55.80;;;;;;20691;6854;117225;-73
2023/01/09 05:21:21;;;;;;;0.20;0.20;;;8.90;57.30;;;;;;20684;6854;116931;-73
2023/01/09 05:23:46;;;;;;;0.20;0.20;;;8.80;57.20;;;;;;20692;6854;118302;-76
2023/01/09 05:26:12;;;;;;;0.25;0.20;;;8.50;58.20;;;;;;20385;6854;281257;-74
2023/01/09 05:28:38;;;;;;;0.20;0.10;;;8.50;58.30;;;;;;20482;6854;307239;-74
2023/01/09 05:31:03;;;;;;;0.30;0.20;;;8.80;57.70;;;;;;20696;6854;117695;-75
2023/01/09 05:33:30;;;;;;;0.10;0.10;;;8.60;57.70;;;;;;20492;6854;278416;-74
2023/01/09 05:35:56;;;;;;;0.20;0.10;;;8.60;57.50;;;;;;20696;6854;117148;-75
2023/01/09 05:38:22;;;;;;;0.95;0.20;;;8.50;57.60;;;;;;20149;6872;281794;-75
2023/01/09 05:40:47;;;;;;;0.50;0.40;;;8.50;57.70;;;;;;20486;6854;283278;-77
2023/01/09 05:43:15;;;;;;;1.53;0.40;;;8.70;57.00;;;;;;20691;6854;117474;-78
2023/01/09 05:45:40;;;;;;;0.23;0.23;;;8.50;57.00;;;;;;20693;6852;117171;-76
2023/01/09 05:48:07;;;;;;;0.40;0.40;;;8.20;57.70;;;;;;20689;6853;117255;-76
2023/01/09 05:50:34;;;;;;;0.40;0.37;;;7.90;58.50;;;;;;20706;6853;117273;-82
2023/01/09 05:52:59;;;;;;;0.93;0.30;;;7.70;59.40;;;;;;20500;6853;278865;-77
2023/01/09 05:55:25;;;;;;;0.77;0.50;;;7.90;59.50;;;;;;20490;6853;306544;-76
2023/01/09 05:57:51;;;;;;;0.30;0.30;;;8.50;58.10;;;;;;20479;6853;311381;-76
2023/01/09 06:00:17;;;;;;;0.43;0.43;;;8.50;58.10;;;;;;20672;6853;119949;-77
2023/01/09 06:02:43;;;;;;;0.40;0.40;;;8.40;58.20;;;;;;20685;6853;118214;-76
2023/01/09 06:05:08;;;;;;;0.52;0.50;;;8.10;58.90;;;;;;20657;6853;119196;-75
2023/01/09 06:07:38;;;;;;;0.30;0.30;;;7.90;59.60;;;;;;20469;6853;337234;-77
2023/01/09 06:10:01;;;;;;;0.40;0.37;;;8.10;59.40;;;;;;20682;6853;120895;-77
2023/01/09 06:12:26;;;;;;;0.63;0.30;;;8.10;59.40;;;;;;20677;6853;117296;-80
2023/01/09 06:14:53;;;;;;;1.10;0.30;;;7.90;59.80;;;;;;20502;6853;304933;-77
2023/01/09 06:17:19;;;;;;;0.60;0.30;;;8.10;59.60;;;;;;20438;6853;341973;-77
2023/01/09 06:19:44;;;;;;;1.08;0.30;;;8.40;58.70;;;;;;20429;6853;279045;-77
2023/01/09 06:22:13;;;;;;;0.37;0.30;;;8.60;57.80;;;;;;20617;6853;118516;-82
2023/01/09 06:24:39;;;;;;;0.73;0.57;;;8.50;57.80;;;;;;20619;6854;117367;-81
2023/01/09 06:27:05;;;;;;;0.50;0.40;;;8.10;58.30;;;;;;20448;6854;281099;-83
2023/01/09 06:29:30;;;;;;;1.27;0.40;;;8.10;58.50;;;;;;20643;6854;117122;-83
2023/01/09 06:31:56;;;;;;;0.60;0.33;;;8.10;58.30;;;;;;20454;6854;307568;-85
2023/01/09 06:34:22;;;;;;;0.68;0.40;;;8.30;57.50;;;;;;20495;6854;308092;-79
2023/01/09 06:36:48;;;;;;;0.30;0.30;;;8.30;57.50;;;;;;20699;6854;117604;-81
2023/01/09 06:39:14;;;;;;;1.00;0.40;;;8.10;57.30;;;;;;20467;6854;331314;-85
2023/01/09 06:41:40;;;;;;;0.87;0.40;;;8.10;57.30;;;;;;20480;6854;300949;-79
2023/01/09 06:44:05;;;;;;;0.68;0.52;;;8.30;56.60;;;;;;20673;6854;118006;-82
2023/01/09 06:46:31;;;;;;;2.15;0.45;;;8.10;56.80;;;;;;20694;6854;117363;-80
2023/01/09 06:48:57;;;;;;;0.40;0.40;;;7.80;57.60;;;;;;20692;6854;117591;-81
2023/01/09 06:51:22;;;;;;;0.40;0.40;;;7.50;58.30;;;;;;20690;6854;118549;-78
2023/01/09 06:53:48;;;;;;;2.12;0.60;;;7.30;59.00;;;;;;20483;6854;308008;-75
2023/01/09 06:56:13;;;;;;;0.53;0.53;;;7.40;58.60;;;;;;20468;6854;307974;-77
2023/01/09 06:58:39;;;;;;;1.65;0.55;;;7.70;57.80;;;;;;20491;6852;297990;-77
2023/01/09 07:01:04;;;;;;;0.50;0.50;;;8.00;57.00;;;;;;20702;6853;118219;-77
2023/01/09 07:03:30;;;;;;;1.40;0.60;;;7.90;57.20;;;;;;20475;6853;294832;-77
2023/01/09 07:05:56;;;;;;;1.90;0.75;;;7.90;57.00;;;;;;20475;6853;337451;-77
2023/01/09 07:08:22;;;;;;;0.70;0.70;;;8.10;56.50;;;;;;20712;6853;67929;-77
2023/01/09 07:10:48;;;;;;;0.73;0.55;;;8.00;56.80;;;;;;20485;6853;311978;-77
2023/01/09 07:13:13;;;;;;;1.45;0.98;;;8.10;57.10;;;;;;20704;6853;116938;-79
2023/01/09 07:15:39;;;;;;;1.00;0.70;;;8.10;56.90;;;;;;20470;6853;337404;-79
2023/01/09 07:18:05;;;;;;;1.33;1.20;;;8.10;56.90;;;;;;20458;6853;304059;-76
2023/01/09 07:20:31;;;;;;;2.30;0.90;;;8.30;56.30;;;;;;20476;6853;293831;-76
2023/01/09 07:22:56;;;;;;;1.23;0.90;;;8.50;55.80;;;;;;20692;6853;117615;-76
2023/01/09 07:25:22;;;;;;;0.93;0.80;;;8.30;56.00;;;;;;20679;6853;118337;-76
2023/01/09 07:27:49;;;;;;;2.43;1.57;;;8.10;56.90;;;;;;20695;6853;117416;-79
2023/01/09 07:30:14;;;;;;;1.55;0.95;;;7.80;57.70;;;;;;20464;6853;307765;-79
2023/01/09 07:32:40;;;;;;;1.50;0.80;;;7.90;57.50;;;;;;20483;6853;308705;-78
2023/01/09 07:35:06;;;;;;;0.50;0.50;;;8.20;56.90;;;;;;20687;6853;118956;-76
2023/01/09 07:37:32;;;;;;;2.28;0.90;;;8.20;56.90;;;;;;20474;6854;303989;-78
2023/01/09 07:39:58;;;;;;;1.40;0.70;;;8.20;56.60;;;;;;20676;6854;121895;-75
2023/01/09 07:42:23;;;;;;;3.63;0.80;;;8.20;56.70;;;;;;20691;6854;118099;-79
2023/01/09 07:44:49;;;;;;;1.27;0.80;;;7.90;57.90;;;;;;20692;6854;117470;-81
2023/01/09 07:47:15;;;;;;;1.45;0.90;;;7.70;57.80;;;;;;20462;6854;309293;-76
2023/01/09 07:49:40;;;;;;;1.27;0.87;;;7.80;57.30;;;;;;20697;6854;117455;-76
2023/01/09 07:52:06;;;;;;;1.85;1.00;;;7.80;57.40;;;;;;20461;6854;306916;-76
2023/01/09 07:54:31;;;;;;;1.93;0.70;;;8.00;56.80;;;;;;20695;6854;117358;-76
2023/01/09 07:56:58;;;;;;;2.47;1.40;;;8.00;56.30;;;;;;20485;6854;287675;-76
2023/01/09 07:59:23;;;;;;;1.27;0.80;;;8.00;56.20;;;;;;20688;6854;117223;-75
2023/01/09 08:01:49;;;;;;;2.55;1.05;;;7.90;56.30;;;;;;20482;6854;311183;-76
2023/01/09 08:04:14;;;;;;;0.97;0.80;;;7.90;55.80;;;;;;20684;6854;118070;-78
2023/01/09 08:06:40;;;;;;;2.50;2.30;;;7.80;55.90;;;;;;20485;6854;314573;-76
2023/01/09 08:09:05;;;;;;;2.77;1.60;;;7.90;56.00;;;;;;20489;6852;282670;-76
2023/01/09 08:11:31;;;;;;;3.13;2.77;;;8.10;54.70;;;;;;20480;6853;296069;-76
2023/01/09 08:13:56;;;;;;;1.73;0.90;;;8.30;54.30;;;;;;20677;6853;117899;-76
2023/01/09 08:16:22;;;;;;;13.48;11.50;;;8.20;54.70;;;;;;20689;6853;117064;-76
2023/01/09 08:18:49;;;;;;;12.53;9.77;;;7.90;55.40;;;;;;20699;6853;119009;-76
2023/01/09 08:21:14;;;;;;;3.33;2.73;;;7.60;56.60;;;;;;20698;6853;123195;-76
2023/01/09 08:23:41;;;;;;;25.37;19.87;;;7.50;56.60;;;;;;20490;6853;307669;-75
2023/01/09 08:26:06;;;;;;;5.70;4.80;;;7.50;56.50;;;;;;20686;6853;117954;-75
2023/01/09 08:28:32;;;;;;;5.60;3.03;;;7.50;56.50;;;;;;20686;6853;117360;-76
2023/01/09 08:30:57;;;;;;;1.83;1.55;;;7.40;57.00;;;;;;20702;6853;117573;-75
2023/01/09 08:33:24;;;;;;;1.70;1.27;;;7.40;57.00;;;;;;20480;6853;308935;-75
2023/01/09 08:35:50;;;;;;;2.67;1.37;;;7.80;56.10;;;;;;20484;6853;278682;-75
2023/01/09 08:38:15;;;;;;;2.15;1.20;;;7.80;56.20;;;;;;20463;6853;311770;-76
2023/01/09 08:40:41;;;;;;;1.47;1.37;;;8.10;55.20;;;;;;20476;6853;311290;-76
2023/01/09 08:47:04;;;;;;;2.67;1.40;;;8.30;54.60;;;;;;20484;6853;284139;-77
2023/01/09 08:48:25;;;;;;;1.57;0.93;;;8.40;54.30;;;;;;20402;6854;342560;-76
2023/01/09 08:50:53;;;;;;;2.15;1.20;;;8.60;53.70;;;;;;20481;6854;278501;-80
2023/01/09 08:53:16;;;;;;;1.30;1.10;;;8.80;53.30;;;;;;20684;6854;117143;-75
2023/01/09 08:55:43;;;;;;;2.33;1.10;;;8.70;53.80;;;;;;20476;6854;342344;-78
2023/01/09 08:58:09;;;;;;;2.17;0.80;;;8.80;54.20;;;;;;20672;6854;117849;-75
2023/01/09 09:00:35;;;;;;;1.87;1.00;;;8.80;54.70;;;;;;20485;6854;282816;-75
2023/01/09 09:03:00;;;;;;;2.87;1.00;;;9.00;54.30;;;;;;20475;6854;299931;-78
2023/01/09 09:05:27;;;;;;;3.77;1.43;;;9.30;53.80;;;;;;20693;6854;117353;-74
2023/01/09 09:07:55;;;;;;;1.77;1.00;;;9.30;53.80;;;;;;20470;6854;310525;-76
2023/01/09 09:10:24;;;;;;;2.47;1.00;;;9.40;53.10;;;;;;20478;6854;294268;-75
2023/01/09 09:12:50;;;;;;;2.70;1.23;;;9.60;52.60;;;;;;20473;6854;317318;-75
2023/01/09 09:15:19;;;;;;;3.07;0.83;;;9.80;51.90;;;;;;20688;6854;117036;-75
2023/01/09 09:17:44;;;;;;;2.87;1.20;;;9.70;52.50;;;;;;20475;6854;279192;-76
2023/01/09 09:20:10;;;;;;;2.73;1.03;;;9.60;52.10;;;;;;20455;6854;292084;-75
2023/01/09 09:22:35;;;;;;;1.70;1.10;;;9.80;51.90;;;;;;20478;6852;308966;-75
2023/01/09 09:25:03;;;;;;;2.10;1.20;;;10.00;50.10;;;;;;20482;6853;315469;-75
2023/01/09 09:27:28;;;;;;;1.57;1.00;;;9.80;51.90;;;;;;20686;6853;117478;-76
2023/01/09 09:29:53;;;;;;;2.65;1.30;;;9.80;51.80;;;;;;20477;6853;308292;-76
2023/01/09 09:32:19;;;;;;;2.97;1.45;;;9.70;51.70;;;;;;20465;6853;336784;-78
2023/01/09 09:34:46;;;;;;;1.27;1.17;;;9.90;51.70;;;;;;20697;6853;116942;-75
2023/01/09 09:37:11;;;;;;;3.30;1.43;;;9.80;52.30;;;;;;20695;6853;117379;-76
2023/01/09 09:39:37;;;;;;;2.97;1.40;;;9.50;53.10;;;;;;20478;6853;308117;-76
2023/01/09 09:45:27;;;;;;;2.83;1.23;;;9.80;52.10;;;;;;20210;6853;307996;-75
2023/01/09 09:48:22;;;;;;;2.97;1.10;;;10.10;51.00;;;;;;20042;6853;118809;-76
2023/01/09 09:51:04;;;;;;;2.13;1.00;;;9.90;52.60;;;;;;20693;6853;117355;-75
2023/01/09 09:53:46;;;;;;;2.30;1.10;;;9.60;53.30;;;;;;20480;6853;307782;-76
2023/01/09 09:56:13;;;;;;;1.97;1.03;;;9.70;51.50;;;;;;20659;6853;117264;-76
2023/01/09 09:58:39;;;;;;;3.20;1.23;;;9.60;52.00;;;;;;20469;6854;337652;-76
2023/01/09 10:01:05;;;;;;;4.03;1.10;;;9.70;51.80;;;;;;20473;6854;302230;-76
2023/01/09 10:03:35;;;;;;;3.37;1.20;;;10.00;50.80;;;;;;20479;6854;278942;-75
2023/01/09 10:06:01;;;;;;;2.23;1.23;;;10.30;50.10;;;;;;20452;6854;307830;-76
2023/01/09 10:08:54;;;;;;;2.85;1.40;;;10.50;49.20;;;;;;20477;6854;308842;-76
2023/01/09 10:11:19;;;;;;;2.73;1.30;;;10.60;48.80;;;;;;20475;6854;279232;-76
2023/01/09 10:14:04;;;;;;;3.43;1.50;;;10.80;48.90;;;;;;20476;6854;308089;-76
2023/01/09 10:17:04;;;;;;;2.10;1.10;;;11.00;48.40;;;;;;20485;6854;307986;-76
2023/01/09 10:19:37;;;;;;;5.03;0.97;;;10.80;49.00;;;;;;20677;6854;117913;-75
2023/01/09 10:22:05;;;;;;;3.83;1.40;;;10.80;49.60;;;;;;20441;6854;337648;-76
2023/01/09 10:24:50;;;;;;;1.92;1.20;;;10.80;49.50;;;;;;20476;6854;308461;-76
2023/01/09 10:27:26;;;;;;;1.67;1.03;;;11.00;48.90;;;;;;20691;6854;117105;-76
2023/01/09 10:29:58;;;;;;;1.85;1.10;;;11.00;49.60;;;;;;20461;6854;337718;-76
2023/01/09 10:32:24;;;;;;;2.73;1.30;;;11.00;48.70;;;;;;20431;6852;308880;-75
2023/01/09 10:35:10;;;;;;;3.03;1.50;;;11.20;48.30;;;;;;20449;6853;334250;-78
2023/01/09 10:37:42;;;;;;;2.03;1.00;;;11.30;48.20;;;;;;20662;6853;121157;-77
2023/01/09 10:40:21;;;;;;;1.97;0.90;;;11.20;49.10;;;;;;20666;6853;117813;-77
2023/01/09 10:42:49;;;;;;;3.63;0.93;;;10.90;49.90;;;;;;20679;6853;117357;-76
2023/01/09 10:45:19;;;;;;;2.08;1.10;;;10.60;50.70;;;;;;20462;6853;308186;-77
2023/01/09 10:47:44;;;;;;;2.12;1.33;;;10.70;49.70;;;;;;20474;6853;312251;-79
2023/01/09 10:50:20;;;;;;;1.73;1.00;;;10.90;49.90;;;;;;20669;6853;118141;-76
2023/01/09 10:52:47;;;;;;;2.77;0.90;;;10.90;49.90;;;;;;20688;6853;117777;-76
2023/01/09 10:55:18;;;;;;;1.83;0.93;;;10.70;50.60;;;;;;20664;6853;117390;-74
2023/01/09 10:57:44;;;;;;;2.33;0.93;;;10.50;51.10;;;;;;20675;6853;117707;-75
2023/01/09 11:00:13;;;;;;;3.10;1.10;;;10.30;51.60;;;;;;20665;6853;117987;-75
2023/01/09 11:02:38;;;;;;;2.43;0.93;;;10.20;52.00;;;;;;20687;6853;120209;-75
2023/01/09 11:05:04;;;;;;;1.35;0.73;;;10.00;52.00;;;;;;20700;6853;123791;-74
2023/01/09 11:07:34;;;;;;;2.20;1.00;;;9.90;53.20;;;;;;20692;6853;117387;-76
2023/01/09 11:09:59;;;;;;;2.43;1.00;;;9.90;53.60;;;;;;20667;6854;117759;-77
2023/01/09 11:12:25;;;;;;;3.37;1.00;;;9.80;53.70;;;;;;20688;6854;117937;-75
2023/01/09 11:14:53;;;;;;;2.35;1.30;;;9.70;53.60;;;;;;20473;6854;283149;-76
2023/01/09 11:17:19;;;;;;;2.87;1.30;;;10.00;50.50;;;;;;20684;6854;116944;-75
2023/01/09 11:19:44;;;;;;;3.37;1.20;;;10.00;50.90;;;;;;20474;6854;278566;-75
2023/01/09 11:22:14;;;;;;;2.12;1.00;;;10.30;49.40;;;;;;20617;6854;118699;-76
2023/01/09 11:24:39;;;;;;;9.57;5.87;;;10.30;50.00;;;;;;20678;6854;118463;-74
2023/01/09 11:27:11;;;;;;;5.25;3.75;;;10.10;50.30;;;;;;20684;6854;117807;-75
2023/01/09 11:29:38;;;;;;;2.50;1.00;;;9.90;52.50;;;;;;20684;6854;117416;-75
2023/01/09 11:32:03;;;;;;;3.37;1.40;;;9.90;52.40;;;;;;20633;6854;123296;-75
2023/01/09 11:34:30;;;;;;;4.57;1.10;;;9.90;52.90;;;;;;20675;6854;117198;-76
2023/01/09 11:37:06;;;;;;;3.93;1.23;;;9.80;53.50;;;;;;20673;6854;117012;-75
2023/01/09 11:39:32;;;;;;;3.80;1.40;;;10.20;51.40;;;;;;20428;6854;308003;-74
2023/01/09 11:41:58;;;;;;;4.43;2.13;;;10.10;51.20;;;;;;20663;6854;118598;-75
2023/01/09 11:44:24;;;;;;;1.95;1.23;;;10.70;49.90;;;;;;20467;6851;282549;-75
2023/01/09 11:46:50;;;;;;;4.57;1.27;;;10.70;49.90;;;;;;20684;6853;117718;-75
2023/01/09 11:49:16;;;;;;;3.60;1.20;;;10.80;50.10;;;;;;20484;6853;278976;-75
2023/01/09 11:51:41;;;;;;;2.83;1.40;;;11.00;48.50;;;;;;20689;6853;117894;-75
2023/01/09 11:54:17;;;;;;;2.73;1.23;;;11.00;49.10;;;;;;20457;6853;337487;-75
2023/01/09 11:56:43;;;;;;;3.37;1.20;;;11.10;48.90;;;;;;20698;6853;121842;-75
2023/01/09 11:59:18;;;;;;;1.73;0.97;;;11.10;48.90;;;;;;20697;6853;117328;-76
2023/01/09 12:01:53;;;;;;;3.13;1.20;;;11.00;49.70;;;;;;20676;6853;117808;-75
2023/01/09 12:04:48;;;;;;;3.93;1.13;;;10.80;50.10;;;;;;20658;6853;118123;-76
2023/01/09 12:07:18;;;;;;;4.20;1.37;;;10.80;48.30;;;;;;20460;6853;278683;-75
2023/01/09 12:09:47;;;;;;;3.93;1.17;;;10.80;49.00;;;;;;20659;6853;117423;-75
2023/01/09 12:12:39;;;;;;;1.37;1.00;;;10.80;49.00;;;;;;20642;6853;117803;-75
2023/01/09 12:15:17;;;;;;;3.10;1.30;;;10.70;49.60;;;;;;20480;6853;312307;-75
2023/01/09 12:17:53;;;;;;;2.78;1.20;;;10.90;48.50;;;;;;20478;6853;311009;-75
2023/01/09 12:20:21;;;;;;;2.50;1.37;;;11.20;47.20;;;;;;20459;6853;278113;-78
2023/01/09 12:22:56;;;;;;;3.07;0.90;;;11.50;46.90;;;;;;20687;6854;117089;-75
2023/01/09 12:25:36;;;;;;;3.42;1.50;;;11.50;46.70;;;;;;20448;6854;308954;-81
2023/01/09 12:28:35;;;;;;;1.17;0.80;;;11.50;46.60;;;;;;20666;6854;118122;-73
2023/01/09 12:31:40;;;;;;;1.85;1.10;;;11.30;47.60;;;;;;20479;6854;341927;-73
2023/01/09 12:34:32;;;;;;;2.93;1.10;;;11.40;46.50;;;;;;20678;6854;132723;-72
2023/01/09 12:37:15;;;;;;;2.80;0.93;;;11.20;47.70;;;;;;20217;6854;117189;-73
2023/01/09 12:39:55;;;;;;;2.13;1.03;;;10.90;48.50;;;;;;20480;6854;282304;-74
2023/01/09 12:42:41;;;;;;;1.33;0.90;;;11.10;47.00;;;;;;20656;6854;117980;-73
2023/01/09 12:45:22;;;;;;;2.53;1.08;;;11.00;47.90;;;;;;20481;6854;318369;-72
2023/01/09 12:47:48;;;;;;;2.37;1.00;;;11.20;47.30;;;;;;20445;6854;313201;-73
2023/01/09 12:50:33;;;;;;;0.60;0.60;;;11.40;45.90;;;;;;20668;6854;121501;-72
2023/01/09 12:52:59;;;;;;;2.10;1.00;;;11.30;46.60;;;;;;20474;6854;308116;-72
2023/01/09 12:55:25;;;;;;;2.47;0.97;;;11.30;45.60;;;;;;20688;6852;117386;-72
2023/01/09 12:57:50;;;;;;;1.90;0.87;;;11.20;46.50;;;;;;20481;6853;309584;-73
2023/01/09 13:00:39;;;;;;;0.50;0.47;;;11.20;46.30;;;;;;20463;6853;308972;-75